createdAt,value
2023-05-06T00:01:08.924Z,97379.16
2023-05-06T00:03:36.645Z,97375.44
2023-05-06T00:06:07.094Z,97381.06
2023-05-06T00:08:34.647Z,97385.72
2023-05-06T00:11:02.167Z,97380.00
2023-05-06T00:13:29.746Z,97382.38
2023-05-06T00:15:57.254Z,97380.66
2023-05-06T00:18:24.718Z,97373.22
2023-05-06T00:20:52.248Z,97385.59
2023-05-06T00:23:21.122Z,97381.66
2023-05-06T00:25:48.600Z,97377.69
2023-05-06T00:28:16.086Z,97377.38
2023-05-06T00:30:43.828Z,97381.34
2023-05-06T00:33:11.369Z,97378.66
2023-05-06T00:35:40.090Z,97381.78
2023-05-06T00:38:09.702Z,97377.25
2023-05-06T00:40:38.568Z,97366.50
2023-05-06T00:43:06.520Z,97368.59
2023-05-06T00:45:34.335Z,97366.38
2023-05-06T00:48:02.249Z,97363.59
2023-05-06T00:50:31.236Z,97361.94
2023-05-06T00:52:59.855Z,97351.03
2023-05-06T00:55:27.562Z,97355.06
2023-05-06T00:57:56.645Z,97357.38
2023-05-06T01:00:24.303Z,97352.59
2023-05-06T01:02:52.767Z,97354.03
2023-05-06T01:05:22.499Z,97352.03
2023-05-06T01:07:53.744Z,97353.19
2023-05-06T01:10:28.973Z,97344.94
2023-05-06T01:13:02.712Z,97354.13
2023-05-06T01:15:34.410Z,97347.78
2023-05-06T01:18:05.980Z,97349.91
2023-05-06T01:20:34.209Z,97350.09
2023-05-06T01:23:02.910Z,97349.19
2023-05-06T01:25:33.689Z,97349.91
2023-05-06T01:28:01.241Z,97340.59
2023-05-06T01:30:33.311Z,97338.22
2023-05-06T01:33:05.343Z,97335.16
2023-05-06T01:35:36.845Z,97341.13
2023-05-06T01:38:08.624Z,97343.59
2023-05-06T01:40:37.959Z,97343.41
2023-05-06T01:43:06.393Z,97342.53
2023-05-06T01:45:35.628Z,97344.41
2023-05-06T01:48:05.473Z,97352.28
2023-05-06T01:50:33.806Z,97361.53
2023-05-06T01:53:03.008Z,97359.16
2023-05-06T01:55:30.821Z,97356.75
2023-05-06T01:58:00.647Z,97362.69
2023-05-06T02:00:28.248Z,97368.50
2023-05-06T02:02:55.807Z,97363.97
2023-05-06T02:05:23.744Z,97368.00
2023-05-06T02:07:55.461Z,97369.47
2023-05-06T02:10:23.223Z,97371.00
2023-05-06T02:12:58.068Z,97373.22
2023-05-06T02:15:27.529Z,97368.75
2023-05-06T02:17:57.090Z,97370.06
2023-05-06T02:20:24.923Z,97367.38
2023-05-06T02:22:52.435Z,97356.06
2023-05-06T02:25:20.156Z,97352.41
2023-05-06T02:27:47.616Z,97353.84
2023-05-06T02:30:15.609Z,97357.38
2023-05-06T02:32:44.459Z,97350.38
2023-05-06T02:35:12.154Z,97347.81
2023-05-06T02:37:39.672Z,97344.66
2023-05-06T02:40:08.924Z,97349.00
2023-05-06T02:42:36.470Z,97347.09
2023-05-06T02:45:04.785Z,97341.97
2023-05-06T02:47:33.198Z,97341.97
2023-05-06T02:50:02.123Z,97342.59
2023-05-06T02:52:29.605Z,97339.91
2023-05-06T02:54:57.303Z,97343.41
2023-05-06T02:57:24.835Z,97339.19
2023-05-06T02:59:52.349Z,97342.69
2023-05-06T03:02:19.820Z,97333.06
2023-05-06T03:04:47.491Z,97341.94
2023-05-06T03:07:16.323Z,97340.50
2023-05-06T03:09:44.592Z,97343.09
2023-05-06T03:12:12.725Z,97334.66
2023-05-06T03:14:40.651Z,97338.63
2023-05-06T03:17:08.177Z,97338.47
2023-05-06T03:19:37.579Z,97343.78
2023-05-06T03:22:07.157Z,97345.47
2023-05-06T03:24:38.567Z,97340.28
2023-05-06T03:27:07.419Z,97341.94
2023-05-06T03:29:35.058Z,97337.81
2023-05-06T03:32:04.518Z,97336.19
2023-05-06T03:34:36.468Z,97334.09
2023-05-06T03:37:04.525Z,97343.44
2023-05-06T03:39:32.192Z,97340.34
2023-05-06T03:42:02.965Z,97339.28
2023-05-06T03:44:30.790Z,97340.09
2023-05-06T03:46:59.530Z,97333.97
2023-05-06T03:49:28.603Z,97338.69
2023-05-06T03:51:56.362Z,97342.16
2023-05-06T03:54:25.994Z,97341.09
2023-05-06T03:56:54.232Z,97342.91
2023-05-06T03:59:23.440Z,97345.59
2023-05-06T04:01:51.761Z,97342.56
2023-05-06T04:04:19.826Z,97346.47
2023-05-06T04:06:47.314Z,97348.75
2023-05-06T04:09:14.849Z,97347.91
2023-05-06T04:11:42.531Z,97349.31
2023-05-06T04:14:13.225Z,97352.88
2023-05-06T04:16:42.091Z,97358.28
2023-05-06T04:19:09.716Z,97359.31
2023-05-06T04:21:37.676Z,97359.09
2023-05-06T04:24:09.462Z,97363.56
2023-05-06T04:26:39.781Z,97372.66
2023-05-06T04:29:08.765Z,97373.41
2023-05-06T04:31:44.075Z,97372.78
2023-05-06T04:34:13.698Z,97375.72
2023-05-06T04:36:41.881Z,97371.75
2023-05-06T04:39:18.123Z,97372.16
2023-05-06T04:41:46.298Z,97376.34
2023-05-06T04:44:19.432Z,97379.03
2023-05-06T04:46:49.100Z,97390.63
2023-05-06T04:49:17.283Z,97391.72
2023-05-06T04:51:45.547Z,97396.81
2023-05-06T04:54:13.566Z,97399.66
2023-05-06T04:56:41.661Z,97411.34
2023-05-06T04:59:11.685Z,97401.47
2023-05-06T05:01:41.009Z,97408.72
2023-05-06T05:04:11.226Z,97410.59
2023-05-06T05:06:38.739Z,97414.31
2023-05-06T05:09:06.341Z,97423.00
2023-05-06T05:11:34.798Z,97416.38
2023-05-06T05:14:02.530Z,97420.66
2023-05-06T05:16:31.299Z,97408.03
2023-05-06T05:19:01.477Z,97419.56
2023-05-06T05:21:32.865Z,97409.66
2023-05-06T05:24:00.914Z,97416.59
2023-05-06T05:26:28.490Z,97412.50
2023-05-06T05:28:58.535Z,97416.78
2023-05-06T05:31:26.101Z,97422.97
2023-05-06T05:33:53.791Z,97422.50
2023-05-06T05:36:23.633Z,97416.25
2023-05-06T05:38:56.201Z,97430.16
2023-05-06T05:41:26.934Z,97433.66
2023-05-06T05:43:56.177Z,97433.44
2023-05-06T05:46:24.537Z,97432.56
2023-05-06T05:48:52.737Z,97430.88
2023-05-06T05:51:22.781Z,97432.25
2023-05-06T05:53:52.242Z,97427.88
2023-05-06T05:56:23.007Z,97434.66
2023-05-06T05:58:50.495Z,97442.06
2023-05-06T06:01:18.475Z,97437.28
2023-05-06T06:03:48.093Z,97441.75
2023-05-06T06:06:15.756Z,97437.69
2023-05-06T06:08:43.883Z,97445.53
2023-05-06T06:11:12.997Z,97449.19
2023-05-06T06:13:43.527Z,97449.75
2023-05-06T06:16:11.783Z,97452.97
2023-05-06T06:18:39.337Z,97454.94
2023-05-06T06:21:06.953Z,97448.22
2023-05-06T06:23:35.734Z,97460.56
2023-05-06T06:26:03.800Z,97461.34
2023-05-06T06:28:33.508Z,97460.88
2023-05-06T06:31:02.873Z,97471.59
2023-05-06T06:33:30.396Z,97471.09
2023-05-06T06:35:58.274Z,97467.28
2023-05-06T06:38:25.827Z,97470.53
2023-05-06T06:40:53.404Z,97472.94
2023-05-06T06:43:20.911Z,97478.25
2023-05-06T06:46:04.027Z,97479.13
2023-05-06T06:48:31.690Z,97480.00
2023-05-06T06:50:59.204Z,97483.53
2023-05-06T06:53:26.701Z,97486.28
2023-05-06T06:55:54.191Z,97497.53
2023-05-06T06:58:21.698Z,97491.91
2023-05-06T07:00:49.263Z,97484.50
2023-05-06T07:03:19.557Z,97495.25
2023-05-06T07:05:47.310Z,97491.94
2023-05-06T07:08:15.587Z,97502.19
2023-05-06T07:10:43.041Z,97502.31
2023-05-06T07:13:10.549Z,97493.56
2023-05-06T07:15:38.067Z,97498.00
2023-05-06T07:18:05.913Z,97514.03
2023-05-06T07:20:34.886Z,97506.13
2023-05-06T07:23:02.365Z,97508.38
2023-05-06T07:25:31.277Z,97509.41
2023-05-06T07:27:59.004Z,97510.59
2023-05-06T07:30:26.576Z,97510.25
2023-05-06T07:32:54.291Z,97515.34
2023-05-06T07:35:21.788Z,97524.69
2023-05-06T07:37:50.663Z,97523.97
2023-05-06T07:40:18.179Z,97518.81
2023-05-06T07:42:45.654Z,97528.22
2023-05-06T07:45:13.262Z,97530.06
2023-05-06T07:47:40.868Z,97531.25
2023-05-06T07:50:10.543Z,97540.56
2023-05-06T07:52:38.077Z,97535.28
2023-05-06T07:55:10.080Z,97540.50
2023-05-06T07:57:37.920Z,97537.41
2023-05-06T08:00:06.997Z,97539.19
2023-05-06T08:02:44.359Z,97542.50
2023-05-06T08:05:12.411Z,97547.25
2023-05-06T08:07:40.988Z,97543.13
2023-05-06T08:10:11.149Z,97545.94
2023-05-06T08:12:38.723Z,97557.84
2023-05-06T08:15:07.269Z,97545.56
2023-05-06T08:17:34.806Z,97542.31
2023-05-06T08:20:02.364Z,97555.34
2023-05-06T08:22:29.862Z,97549.00
2023-05-06T08:24:57.476Z,97548.06
2023-05-06T08:27:26.621Z,97546.63
2023-05-06T08:29:54.443Z,97560.28
2023-05-06T08:32:21.972Z,97551.16
2023-05-06T08:34:49.460Z,97553.72
2023-05-06T08:37:17.006Z,97559.38
2023-05-06T08:39:45.553Z,97564.91
2023-05-06T08:42:13.115Z,97558.47
2023-05-06T08:44:43.869Z,97563.72
2023-05-06T08:47:11.357Z,97562.13
2023-05-06T08:49:38.946Z,97562.09
2023-05-06T08:52:07.024Z,97551.03
2023-05-06T08:54:35.352Z,97567.81
2023-05-06T08:57:05.035Z,97552.56
2023-05-06T08:59:33.796Z,97556.75
2023-05-06T09:02:03.411Z,97556.13
2023-05-06T09:04:31.106Z,97560.03
2023-05-06T09:06:59.554Z,97557.75
2023-05-06T09:09:27.308Z,97552.06
2023-05-06T09:11:57.325Z,97555.59
2023-05-06T09:14:25.138Z,97556.81
2023-05-06T09:16:53.731Z,97560.53
2023-05-06T09:19:23.408Z,97560.88
2023-05-06T09:21:52.484Z,97557.00
2023-05-06T09:24:20.420Z,97551.19
2023-05-06T09:26:48.285Z,97547.56
2023-05-06T09:29:16.062Z,97539.75
2023-05-06T09:31:44.823Z,97546.56
2023-05-06T09:34:13.032Z,97544.69
2023-05-06T09:36:42.019Z,97547.25
2023-05-06T09:39:10.081Z,97545.13
2023-05-06T09:41:37.805Z,97547.69
2023-05-06T09:44:06.097Z,97550.38
2023-05-06T09:46:33.902Z,97545.34
2023-05-06T09:49:01.608Z,97556.16
2023-05-06T09:51:29.318Z,97549.47
2023-05-06T09:53:59.104Z,97541.75
2023-05-06T09:56:26.949Z,97546.88
2023-05-06T09:58:55.500Z,97550.28
2023-05-06T10:01:35.367Z,97553.31
2023-05-06T10:04:06.945Z,97552.25
2023-05-06T10:06:39.344Z,97551.00
2023-05-06T10:09:08.122Z,97545.00
2023-05-06T10:11:36.456Z,97542.19
2023-05-06T10:14:04.980Z,97543.25
2023-05-06T10:16:35.752Z,97539.00
2023-05-06T10:19:04.809Z,97542.84
2023-05-06T10:21:39.286Z,97547.25
2023-05-06T10:24:11.981Z,97548.38
2023-05-06T10:26:40.040Z,97546.50
2023-05-06T10:29:10.388Z,97540.25
2023-05-06T10:31:41.891Z,97529.88
2023-05-06T10:34:10.926Z,97529.41
2023-05-06T10:36:38.977Z,97524.66
2023-05-06T10:39:10.653Z,97519.44
2023-05-06T10:41:38.442Z,97519.03
2023-05-06T10:44:07.037Z,97510.50
2023-05-06T10:46:58.485Z,97513.50
2023-05-06T10:49:26.125Z,97514.94
2023-05-06T10:52:11.999Z,97503.84
2023-05-06T10:54:51.440Z,97490.06
2023-05-06T10:57:20.734Z,97505.66
2023-05-06T10:59:49.485Z,97503.13
2023-05-06T11:02:20.183Z,97505.91
2023-05-06T11:04:51.857Z,97501.94
2023-05-06T11:07:24.181Z,97501.50
2023-05-06T11:09:58.248Z,97501.09
2023-05-06T11:12:46.050Z,97495.44
2023-05-06T11:15:21.575Z,97501.84
2023-05-06T11:17:49.320Z,97498.25
2023-05-06T11:20:21.130Z,97502.78
2023-05-06T11:22:48.668Z,97499.00
2023-05-06T11:25:40.353Z,97498.09
2023-05-06T11:28:09.220Z,97496.94
2023-05-06T11:30:37.749Z,97501.13
2023-05-06T11:33:05.933Z,97509.50
2023-05-06T11:35:36.975Z,97512.81
2023-05-06T11:38:05.084Z,97506.88
2023-05-06T11:40:34.188Z,97513.03
2023-05-06T11:43:11.768Z,97514.38
2023-05-06T11:45:43.709Z,97515.03
2023-05-06T11:48:13.012Z,97516.09
2023-05-06T11:50:45.262Z,97515.66
2023-05-06T11:53:15.084Z,97509.72
2023-05-06T11:55:44.726Z,97519.47
2023-05-06T11:58:16.427Z,97516.41
2023-05-06T12:00:51.373Z,97517.28
2023-05-06T12:03:19.909Z,97520.31
2023-05-06T12:05:48.679Z,97526.84
2023-05-06T12:08:26.560Z,97528.19
2023-05-06T12:11:00.779Z,97521.28
2023-05-06T12:13:28.872Z,97519.13
2023-05-06T12:15:56.787Z,97517.22
2023-05-06T12:18:24.837Z,97532.38
2023-05-06T12:20:54.646Z,97529.59
2023-05-06T12:23:22.680Z,97530.09
2023-05-06T12:26:03.816Z,97531.75
2023-05-06T12:28:32.455Z,97528.91
2023-05-06T12:30:59.992Z,97532.88
2023-05-06T12:33:27.481Z,97523.63
2023-05-06T12:35:58.257Z,97529.22
2023-05-06T12:38:25.974Z,97518.09
2023-05-06T12:40:54.682Z,97512.13
2023-05-06T12:43:30.926Z,97516.84
2023-05-06T12:46:06.500Z,97509.06
2023-05-06T12:48:34.407Z,97508.50
2023-05-06T12:51:02.202Z,97511.81
2023-05-06T12:53:33.992Z,97511.88
2023-05-06T12:56:01.608Z,97502.31
2023-05-06T12:58:30.819Z,97513.47
2023-05-06T13:00:58.377Z,97508.34
2023-05-06T13:03:26.166Z,97513.47
2023-05-06T13:05:53.811Z,97513.78
2023-05-06T13:08:21.396Z,97513.50
2023-05-06T13:10:48.873Z,97510.25
2023-05-06T13:13:16.507Z,97503.44
2023-05-06T13:15:45.444Z,97503.19
2023-05-06T13:18:12.920Z,97502.63
2023-05-06T13:20:40.705Z,97509.69
2023-05-06T13:23:08.208Z,97503.13
2023-05-06T13:25:44.628Z,97513.63
2023-05-06T13:28:19.696Z,97496.59
2023-05-06T13:30:48.546Z,97510.19
2023-05-06T13:33:16.056Z,97507.78
2023-05-06T13:35:43.523Z,97508.75
2023-05-06T13:38:11.021Z,97500.91
2023-05-06T13:40:38.534Z,97509.38
2023-05-06T13:43:06.057Z,97502.84
2023-05-06T13:45:34.252Z,97506.16
2023-05-06T13:48:03.123Z,97511.88
2023-05-06T13:50:30.668Z,97504.75
2023-05-06T13:52:58.180Z,97508.28
2023-05-06T13:55:25.880Z,97508.25
2023-05-06T13:57:53.361Z,97516.03
2023-05-06T14:00:21.313Z,97510.28
2023-05-06T14:02:48.763Z,97510.56
2023-05-06T14:05:17.757Z,97506.06
2023-05-06T14:07:45.282Z,97505.19
2023-05-06T14:10:12.839Z,97507.06
2023-05-06T14:12:40.628Z,97510.41
2023-05-06T14:15:09.093Z,97502.03
2023-05-06T14:17:37.129Z,97501.75
2023-05-06T14:20:06.208Z,97502.03
2023-05-06T14:22:35.070Z,97504.50
2023-05-06T14:25:02.557Z,97495.19
2023-05-06T14:27:30.988Z,97495.84
2023-05-06T14:29:58.503Z,97496.13
2023-05-06T14:32:26.238Z,97492.38
2023-05-06T14:34:53.734Z,97501.91
2023-05-06T14:37:21.550Z,97495.41
2023-05-06T14:39:50.732Z,97495.50
2023-05-06T14:42:18.210Z,97491.16
2023-05-06T14:44:48.728Z,97489.78
2023-05-06T14:47:16.240Z,97488.69
2023-05-06T14:49:44.144Z,97485.97
2023-05-06T14:52:11.671Z,97484.94
2023-05-06T14:54:42.105Z,97487.84
2023-05-06T14:57:11.276Z,97490.41
2023-05-06T14:59:39.043Z,97486.13
2023-05-06T15:02:09.743Z,97485.75
2023-05-06T15:04:37.508Z,97481.84
2023-05-06T15:07:05.052Z,97480.50
2023-05-06T15:09:32.653Z,97485.28
2023-05-06T15:12:00.429Z,97494.19
2023-05-06T15:14:29.236Z,97491.81
2023-05-06T15:16:57.795Z,97499.53
2023-05-06T15:19:25.759Z,97497.31
2023-05-06T15:21:53.225Z,97502.44
2023-05-06T15:24:20.720Z,97500.16
2023-05-06T15:26:48.219Z,97498.63
2023-05-06T15:29:15.732Z,97507.59
2023-05-06T15:31:46.082Z,97504.38
2023-05-06T15:34:14.346Z,97506.31
2023-05-06T15:36:42.246Z,97508.97
2023-05-06T15:39:09.762Z,97504.13
2023-05-06T15:41:38.834Z,97506.38
2023-05-06T15:44:06.685Z,97505.03
2023-05-06T15:46:34.477Z,97513.84
2023-05-06T15:49:32.009Z,97509.53
2023-05-06T15:51:50.946Z,97504.31
2023-05-06T15:54:19.157Z,97504.63
2023-05-06T15:56:47.036Z,97506.94
2023-05-06T15:59:14.568Z,97499.97
2023-05-06T16:02:24.448Z,97509.22
2023-05-06T16:04:31.290Z,97502.66
2023-05-06T16:06:59.016Z,97507.78
2023-05-06T16:09:27.151Z,97505.06
2023-05-06T16:11:55.001Z,97507.84
2023-05-06T16:14:22.694Z,97511.16
2023-05-06T16:16:50.201Z,97506.91
2023-05-06T16:19:17.706Z,97506.00
2023-05-06T16:21:46.545Z,97511.81
2023-05-06T16:24:14.087Z,97515.75
2023-05-06T16:26:42.378Z,97512.59
2023-05-06T16:29:10.206Z,97511.13
2023-05-06T16:31:38.126Z,97511.13
2023-05-06T16:34:06.326Z,97511.66
2023-05-06T16:36:33.922Z,97518.69
2023-05-06T16:39:03.077Z,97518.13
2023-05-06T16:41:30.616Z,97508.38
2023-05-06T16:43:58.457Z,97508.22
2023-05-06T16:46:26.238Z,97518.84
2023-05-06T16:48:53.995Z,97525.66
2023-05-06T16:51:21.524Z,97522.22
2023-05-06T16:53:49.000Z,97524.19
2023-05-06T16:56:17.904Z,97522.63
2023-05-06T16:58:45.429Z,97516.09
2023-05-06T17:01:13.009Z,97530.91
2023-05-06T17:03:40.868Z,97522.47
2023-05-06T17:06:08.549Z,97519.53
2023-05-06T17:08:37.169Z,97518.69
2023-05-06T17:11:06.713Z,97518.41
2023-05-06T17:13:35.802Z,97510.91
2023-05-06T17:16:03.332Z,97503.28
2023-05-06T17:18:30.874Z,97504.53
2023-05-06T17:20:58.574Z,97519.19
2023-05-06T17:23:26.226Z,97512.38
2023-05-06T17:25:53.836Z,97519.03
2023-05-06T17:28:21.497Z,97513.44
2023-05-06T17:30:50.334Z,97519.66
2023-05-06T17:33:17.959Z,97518.69
2023-05-06T17:35:45.872Z,97522.25
2023-05-06T17:38:13.783Z,97522.91
2023-05-06T17:40:41.283Z,97523.38
2023-05-06T17:43:08.769Z,97530.47
2023-05-06T17:45:36.288Z,97527.22
2023-05-06T17:48:05.953Z,97537.31
2023-05-06T17:50:33.646Z,97538.16
2023-05-06T17:53:01.161Z,97548.47
2023-05-06T17:55:28.711Z,97547.66
2023-05-06T17:57:56.281Z,97545.19
2023-05-06T18:00:24.017Z,97547.03
2023-05-06T18:02:51.565Z,97553.41
2023-05-06T18:05:21.690Z,97549.06
2023-05-06T18:07:49.290Z,97557.84
2023-05-06T18:10:16.810Z,97551.06
2023-05-06T18:12:45.291Z,97555.63
2023-05-06T18:15:13.323Z,97555.78
2023-05-06T18:17:41.081Z,97561.31
2023-05-06T18:20:10.702Z,97557.19
2023-05-06T18:22:39.944Z,97555.19
2023-05-06T18:25:08.813Z,97559.22
2023-05-06T18:27:36.973Z,97568.56
2023-05-06T18:30:04.774Z,97555.47
2023-05-06T18:32:32.504Z,97561.06
2023-05-06T18:35:00.071Z,97557.19
2023-05-06T18:37:28.678Z,97557.53
2023-05-06T18:39:57.508Z,97563.72
2023-05-06T18:42:25.002Z,97566.19
2023-05-06T18:44:52.546Z,97567.13
2023-05-06T18:47:20.246Z,97577.31
2023-05-06T18:49:48.599Z,97582.31
2023-05-06T18:52:17.654Z,97573.09
2023-05-06T18:54:45.188Z,97579.03
2023-05-06T18:57:14.374Z,97575.63
2023-05-06T18:59:42.131Z,97581.25
2023-05-06T19:02:09.610Z,97581.34
2023-05-06T19:04:37.813Z,97587.78
2023-05-06T19:07:05.495Z,97585.88
2023-05-06T19:09:36.808Z,97593.03
2023-05-06T19:12:04.726Z,97595.94
2023-05-06T19:14:34.612Z,97596.16
2023-05-06T19:17:03.336Z,97598.34
2023-05-06T19:19:31.212Z,97602.09
2023-05-06T19:22:01.642Z,97597.81
2023-05-06T19:24:30.819Z,97602.63
2023-05-06T19:26:58.292Z,97609.31
2023-05-06T19:29:25.873Z,97599.78
2023-05-06T19:31:54.948Z,97605.00
2023-05-06T19:34:22.426Z,97605.50
2023-05-06T19:36:49.956Z,97611.09
2023-05-06T19:39:17.425Z,97616.25
2023-05-06T19:41:44.989Z,97617.91
2023-05-06T19:44:12.524Z,97610.88
2023-05-06T19:46:40.206Z,97615.44
2023-05-06T19:49:09.202Z,97615.88
2023-05-06T19:51:36.675Z,97622.91
2023-05-06T19:54:04.434Z,97617.81
2023-05-06T19:56:31.916Z,97623.75
2023-05-06T19:58:59.391Z,97627.44
2023-05-06T20:01:27.157Z,97626.66
2023-05-06T20:03:55.192Z,97624.06
2023-05-06T20:06:24.110Z,97626.75
2023-05-06T20:08:51.627Z,97619.94
2023-05-06T20:11:19.118Z,97624.06
2023-05-06T20:13:46.608Z,97626.94
2023-05-06T20:16:14.170Z,97625.09
2023-05-06T20:18:42.799Z,97620.16
2023-05-06T20:21:10.288Z,97620.00
2023-05-06T20:23:39.074Z,97628.50
2023-05-06T20:26:06.600Z,97622.31
2023-05-06T20:28:37.661Z,97628.94
2023-05-06T20:31:05.337Z,97634.75
2023-05-06T20:33:32.864Z,97639.13
2023-05-06T20:36:00.325Z,97639.13
2023-05-06T20:38:30.759Z,97637.34
2023-05-06T20:41:02.657Z,97641.28
2023-05-06T20:43:30.307Z,97640.06
2023-05-06T20:45:57.947Z,97644.50
2023-05-06T20:48:27.674Z,97651.97
2023-05-06T20:50:56.993Z,97653.00
2023-05-06T20:53:24.581Z,97644.16
2023-05-06T20:55:52.679Z,97657.28
2023-05-06T20:58:21.520Z,97663.34
2023-05-06T21:00:49.986Z,97660.50
2023-05-06T21:03:17.691Z,97670.16
2023-05-06T21:05:45.286Z,97670.66
2023-05-06T21:08:12.808Z,97673.28
2023-05-06T21:10:40.503Z,97659.22
2023-05-06T21:13:08.020Z,97662.09
2023-05-06T21:15:37.649Z,97662.31
2023-05-06T21:18:05.286Z,97659.41
2023-05-06T21:20:32.903Z,97670.38
2023-05-06T21:23:00.552Z,97674.31
2023-05-06T21:25:28.164Z,97678.25
2023-05-06T21:27:55.748Z,97662.16
2023-05-06T21:30:23.336Z,97662.34
2023-05-06T21:32:52.269Z,97668.59
2023-05-06T21:35:19.913Z,97672.09
2023-05-06T21:37:47.387Z,97671.31
2023-05-06T21:40:14.970Z,97675.03
2023-05-06T21:42:42.462Z,97675.03
2023-05-06T21:45:11.515Z,97673.19
2023-05-06T21:47:39.254Z,97673.88
2023-05-06T21:50:10.526Z,97666.22
2023-05-06T21:52:38.063Z,97678.41
2023-05-06T21:55:06.584Z,97677.78
2023-05-06T21:57:34.175Z,97674.69
2023-05-06T22:00:01.717Z,97669.78
2023-05-06T22:02:29.277Z,97675.56
2023-05-06T22:04:56.782Z,97671.44
2023-05-06T22:07:25.599Z,97672.09
2023-05-06T22:09:53.100Z,97671.22
2023-05-06T22:12:20.583Z,97672.47
2023-05-06T22:14:48.111Z,97668.56
2023-05-06T22:17:15.803Z,97673.28
2023-05-06T22:19:43.320Z,97677.63
2023-05-06T22:22:11.467Z,97676.38
2023-05-06T22:24:40.374Z,97680.94
2023-05-06T22:27:07.865Z,97680.06
2023-05-06T22:29:35.978Z,97677.41
2023-05-06T22:32:03.867Z,97674.13
2023-05-06T22:34:31.445Z,97675.34
2023-05-06T22:37:00.467Z,97673.28
2023-05-06T22:39:28.552Z,97683.00
2023-05-06T22:41:57.354Z,97686.91
2023-05-06T22:44:24.870Z,97686.28
2023-05-06T22:46:52.955Z,97689.78
2023-05-06T22:49:20.425Z,97685.88
2023-05-06T22:51:48.051Z,97684.03
2023-05-06T22:54:15.539Z,97686.31
2023-05-06T22:56:43.027Z,97685.88
2023-05-06T22:59:11.837Z,97685.47
2023-05-06T23:01:39.414Z,97685.50
2023-05-06T23:04:07.313Z,97679.69
2023-05-06T23:06:34.885Z,97680.31
2023-05-06T23:09:02.386Z,97675.16
2023-05-06T23:11:29.874Z,97672.50
2023-05-06T23:13:57.364Z,97673.13
2023-05-06T23:16:26.308Z,97671.66
2023-05-06T23:18:54.855Z,97672.69
2023-05-06T23:21:22.543Z,97680.31
2023-05-06T23:23:50.035Z,97678.25
2023-05-06T23:26:17.538Z,97673.53
2023-05-06T23:28:45.029Z,97674.13
2023-05-06T23:31:12.563Z,97676.81
2023-05-06T23:33:41.408Z,97680.75
2023-05-06T23:36:09.115Z,97672.28
2023-05-06T23:38:36.614Z,97680.31
2023-05-06T23:41:04.116Z,97667.34
2023-05-06T23:43:31.608Z,97666.72
2023-05-06T23:45:59.135Z,97672.28
2023-05-06T23:48:26.644Z,97666.72
2023-05-06T23:50:55.621Z,97665.91
2023-05-06T23:53:23.115Z,97669.19
2023-05-06T23:55:50.663Z,97667.09
2023-05-06T23:58:18.172Z,97675.34
